sensor_id;sensor_type;location;lat;lon;timestamp;P1;durP1;ratioP1;P2;durP2;ratioP2
53843;SDS011;39744;53.314;5.710;2022-09-12T00:01:11;18.83;;;13.70;;
53843;SDS011;39744;53.314;5.710;2022-09-12T00:03:37;17.83;;;12.77;;
53843;SDS011;39744;53.314;5.710;2022-09-12T00:06:11;18.50;;;13.23;;
53843;SDS011;39744;53.314;5.710;2022-09-12T00:08:38;21.88;;;13.18;;
53843;SDS011;39744;53.314;5.710;2022-09-12T00:11:05;18.88;;;13.80;;
53843;SDS011;39744;53.314;5.710;2022-09-12T00:13:31;19.00;;;14.15;;
53843;SDS011;39744;53.314;5.710;2022-09-12T00:15:57;17.73;;;13.90;;
53843;SDS011;39744;53.314;5.710;2022-09-12T00:18:23;22.10;;;13.82;;
53843;SDS011;39744;53.314;5.710;2022-09-12T00:20:49;18.73;;;13.80;;
53843;SDS011;39744;53.314;5.710;2022-09-12T00:23:15;18.70;;;14.55;;
53843;SDS011;39744;53.314;5.710;2022-09-12T00:25:45;17.15;;;13.27;;
53843;SDS011;39744;53.314;5.710;2022-09-12T00:28:11;17.15;;;13.20;;
53843;SDS011;39744;53.314;5.710;2022-09-12T00:30:41;20.33;;;13.93;;
53843;SDS011;39744;53.314;5.710;2022-09-12T00:33:08;18.73;;;13.55;;
53843;SDS011;39744;53.314;5.710;2022-09-12T00:35:39;21.50;;;14.27;;
53843;SDS011;39744;53.314;5.710;2022-09-12T00:38:06;22.73;;;14.68;;
53843;SDS011;39744;53.314;5.710;2022-09-12T00:40:32;17.38;;;14.23;;
53843;SDS011;39744;53.314;5.710;2022-09-12T00:42:58;19.58;;;14.13;;
53843;SDS011;39744;53.314;5.710;2022-09-12T00:45:26;18.65;;;14.05;;
53843;SDS011;39744;53.314;5.710;2022-09-12T00:47:53;18.55;;;13.82;;
53843;SDS011;39744;53.314;5.710;2022-09-12T00:50:19;18.90;;;14.13;;
53843;SDS011;39744;53.314;5.710;2022-09-12T00:52:46;21.20;;;14.75;;
53843;SDS011;39744;53.314;5.710;2022-09-12T00:55:19;20.13;;;14.45;;
53843;SDS011;39744;53.314;5.710;2022-09-12T01:00:31;18.25;;;14.60;;
53843;SDS011;39744;53.314;5.710;2022-09-12T01:02:59;19.08;;;14.10;;
53843;SDS011;39744;53.314;5.710;2022-09-12T01:05:26;20.50;;;14.48;;
53843;SDS011;39744;53.314;5.710;2022-09-12T01:07:52;17.90;;;13.40;;
53843;SDS011;39744;53.314;5.710;2022-09-12T01:10:19;19.85;;;13.32;;
53843;SDS011;39744;53.314;5.710;2022-09-12T01:12:45;19.00;;;14.07;;
53843;SDS011;39744;53.314;5.710;2022-09-12T01:15:12;18.60;;;14.05;;
53843;SDS011;39744;53.314;5.710;2022-09-12T01:17:47;22.33;;;13.85;;
53843;SDS011;39744;53.314;5.710;2022-09-12T01:20:20;25.00;;;14.20;;
53843;SDS011;39744;53.314;5.710;2022-09-12T01:22:59;20.17;;;14.60;;
53843;SDS011;39744;53.314;5.710;2022-09-12T01:28:28;18.83;;;13.40;;
53843;SDS011;39744;53.314;5.710;2022-09-12T01:31:01;17.08;;;12.55;;
53843;SDS011;39744;53.314;5.710;2022-09-12T01:36:04;17.90;;;12.70;;
53843;SDS011;39744;53.314;5.710;2022-09-12T01:38:37;17.23;;;13.15;;
53843;SDS011;39744;53.314;5.710;2022-09-12T01:41:11;18.25;;;13.55;;
53843;SDS011;39744;53.314;5.710;2022-09-12T01:46:14;19.55;;;13.82;;
53843;SDS011;39744;53.314;5.710;2022-09-12T01:48:46;18.70;;;14.07;;
53843;SDS011;39744;53.314;5.710;2022-09-12T01:51:17;17.73;;;14.15;;
53843;SDS011;39744;53.314;5.710;2022-09-12T01:53:50;20.65;;;15.80;;
53843;SDS011;39744;53.314;5.710;2022-09-12T01:56:19;16.67;;;14.10;;
53843;SDS011;39744;53.314;5.710;2022-09-12T01:58:50;21.17;;;14.30;;
53843;SDS011;39744;53.314;5.710;2022-09-12T02:01:32;21.98;;;15.02;;
53843;SDS011;39744;53.314;5.710;2022-09-12T02:04:06;21.67;;;15.27;;
53843;SDS011;39744;53.314;5.710;2022-09-12T02:06:35;19.77;;;14.32;;
53843;SDS011;39744;53.314;5.710;2022-09-12T02:09:05;19.60;;;14.38;;
53843;SDS011;39744;53.314;5.710;2022-09-12T02:11:33;21.55;;;14.45;;
53843;SDS011;39744;53.314;5.710;2022-09-12T02:14:01;21.17;;;15.30;;
53843;SDS011;39744;53.314;5.710;2022-09-12T02:17:04;18.15;;;14.27;;
53843;SDS011;39744;53.314;5.710;2022-09-12T02:19:22;20.88;;;13.98;;
53843;SDS011;39744;53.314;5.710;2022-09-12T02:21:49;22.55;;;14.18;;
53843;SDS011;39744;53.314;5.710;2022-09-12T02:24:16;19.27;;;13.80;;
53843;SDS011;39744;53.314;5.710;2022-09-12T02:26:46;23.52;;;14.50;;
53843;SDS011;39744;53.314;5.710;2022-09-12T02:29:14;18.38;;;13.98;;
53843;SDS011;39744;53.314;5.710;2022-09-12T02:31:47;21.30;;;14.02;;
53843;SDS011;39744;53.314;5.710;2022-09-12T02:39:24;17.13;;;12.90;;
53843;SDS011;39744;53.314;5.710;2022-09-12T02:41:51;17.98;;;13.40;;
53843;SDS011;39744;53.314;5.710;2022-09-12T02:44:17;20.95;;;14.23;;
53843;SDS011;39744;53.314;5.710;2022-09-12T02:46:45;18.75;;;13.70;;
53843;SDS011;39744;53.314;5.710;2022-09-12T02:49:13;20.67;;;13.57;;
53843;SDS011;39744;53.314;5.710;2022-09-12T02:51:40;20.08;;;13.30;;
53843;SDS011;39744;53.314;5.710;2022-09-12T02:54:06;23.75;;;14.68;;
53843;SDS011;39744;53.314;5.710;2022-09-12T02:56:33;18.67;;;13.57;;
53843;SDS011;39744;53.314;5.710;2022-09-12T02:59:01;18.77;;;13.40;;
53843;SDS011;39744;53.314;5.710;2022-09-12T03:01:29;20.27;;;14.00;;
53843;SDS011;39744;53.314;5.710;2022-09-12T03:06:43;25.23;;;14.38;;
53843;SDS011;39744;53.314;5.710;2022-09-12T03:14:21;20.08;;;14.68;;
53843;SDS011;39744;53.314;5.710;2022-09-12T03:22:15;21.15;;;15.38;;
53843;SDS011;39744;53.314;5.710;2022-09-12T03:30:13;20.65;;;15.23;;
53843;SDS011;39744;53.314;5.710;2022-09-12T03:35:08;25.13;;;16.30;;
53843;SDS011;39744;53.314;5.710;2022-09-12T03:37:34;22.38;;;16.02;;
53843;SDS011;39744;53.314;5.710;2022-09-12T03:40:00;24.98;;;17.35;;
53843;SDS011;39744;53.314;5.710;2022-09-12T03:42:26;26.60;;;17.20;;
53843;SDS011;39744;53.314;5.710;2022-09-12T03:44:52;26.42;;;18.25;;
53843;SDS011;39744;53.314;5.710;2022-09-12T03:47:19;23.45;;;16.92;;
53843;SDS011;39744;53.314;5.710;2022-09-12T03:49:45;29.13;;;19.17;;
53843;SDS011;39744;53.314;5.710;2022-09-12T03:52:11;30.65;;;18.98;;
53843;SDS011;39744;53.314;5.710;2022-09-12T03:54:37;26.90;;;18.75;;
53843;SDS011;39744;53.314;5.710;2022-09-12T03:57:03;27.00;;;19.10;;
53843;SDS011;39744;53.314;5.710;2022-09-12T03:59:30;30.13;;;18.77;;
53843;SDS011;39744;53.314;5.710;2022-09-12T04:01:56;28.80;;;18.88;;
53843;SDS011;39744;53.314;5.710;2022-09-12T04:04:22;30.42;;;19.88;;
53843;SDS011;39744;53.314;5.710;2022-09-12T04:06:48;31.42;;;19.33;;
53843;SDS011;39744;53.314;5.710;2022-09-12T04:09:14;32.90;;;19.92;;
53843;SDS011;39744;53.314;5.710;2022-09-12T04:11:40;29.80;;;20.02;;
53843;SDS011;39744;53.314;5.710;2022-09-12T04:14:06;33.08;;;21.48;;
53843;SDS011;39744;53.314;5.710;2022-09-12T04:16:32;29.02;;;20.08;;
53843;SDS011;39744;53.314;5.710;2022-09-12T04:18:59;33.38;;;20.30;;
53843;SDS011;39744;53.314;5.710;2022-09-12T04:21:25;29.90;;;19.73;;
53843;SDS011;39744;53.314;5.710;2022-09-12T04:23:51;30.60;;;19.70;;
53843;SDS011;39744;53.314;5.710;2022-09-12T04:26:17;30.08;;;19.65;;
53843;SDS011;39744;53.314;5.710;2022-09-12T04:28:43;30.90;;;19.17;;
53843;SDS011;39744;53.314;5.710;2022-09-12T04:31:11;33.17;;;21.05;;
53843;SDS011;39744;53.314;5.710;2022-09-12T04:33:39;31.30;;;20.60;;
53843;SDS011;39744;53.314;5.710;2022-09-12T04:36:06;32.53;;;20.92;;
53843;SDS011;39744;53.314;5.710;2022-09-12T04:38:33;31.17;;;20.73;;
53843;SDS011;39744;53.314;5.710;2022-09-12T04:40:59;31.67;;;20.58;;
53843;SDS011;39744;53.314;5.710;2022-09-12T04:43:25;34.00;;;21.55;;
53843;SDS011;39744;53.314;5.710;2022-09-12T04:45:51;31.95;;;20.45;;
53843;SDS011;39744;53.314;5.710;2022-09-12T04:48:17;35.38;;;21.80;;
53843;SDS011;39744;53.314;5.710;2022-09-12T04:50:43;33.67;;;20.98;;
53843;SDS011;39744;53.314;5.710;2022-09-12T04:53:09;34.10;;;21.40;;
53843;SDS011;39744;53.314;5.710;2022-09-12T04:55:35;34.72;;;21.35;;
53843;SDS011;39744;53.314;5.710;2022-09-12T04:58:01;35.50;;;21.83;;
53843;SDS011;39744;53.314;5.710;2022-09-12T05:00:28;38.92;;;22.27;;
53843;SDS011;39744;53.314;5.710;2022-09-12T05:02:54;36.65;;;22.55;;
53843;SDS011;39744;53.314;5.710;2022-09-12T05:05:20;38.75;;;22.00;;
53843;SDS011;39744;53.314;5.710;2022-09-12T05:07:46;31.77;;;21.17;;
53843;SDS011;39744;53.314;5.710;2022-09-12T05:10:13;38.10;;;22.92;;
53843;SDS011;39744;53.314;5.710;2022-09-12T05:12:39;36.80;;;23.10;;
53843;SDS011;39744;53.314;5.710;2022-09-12T05:15:05;37.35;;;22.48;;
53843;SDS011;39744;53.314;5.710;2022-09-12T05:17:31;36.15;;;20.92;;
53843;SDS011;39744;53.314;5.710;2022-09-12T05:19:57;39.10;;;21.95;;
53843;SDS011;39744;53.314;5.710;2022-09-12T05:22:24;35.55;;;22.90;;
53843;SDS011;39744;53.314;5.710;2022-09-12T05:24:50;41.63;;;22.48;;
53843;SDS011;39744;53.314;5.710;2022-09-12T05:27:16;38.33;;;23.15;;
53843;SDS011;39744;53.314;5.710;2022-09-12T05:29:42;40.15;;;22.98;;
53843;SDS011;39744;53.314;5.710;2022-09-12T05:32:08;37.83;;;22.88;;
53843;SDS011;39744;53.314;5.710;2022-09-12T05:34:36;37.60;;;21.55;;
53843;SDS011;39744;53.314;5.710;2022-09-12T05:37:02;35.58;;;21.60;;
53843;SDS011;39744;53.314;5.710;2022-09-12T05:39:28;42.22;;;23.50;;
53843;SDS011;39744;53.314;5.710;2022-09-12T05:41:54;37.15;;;21.80;;
53843;SDS011;39744;53.314;5.710;2022-09-12T05:44:20;37.45;;;21.90;;
53843;SDS011;39744;53.314;5.710;2022-09-12T05:46:46;38.20;;;22.27;;
53843;SDS011;39744;53.314;5.710;2022-09-12T05:49:15;36.80;;;22.42;;
53843;SDS011;39744;53.314;5.710;2022-09-12T05:51:42;35.97;;;21.02;;
53843;SDS011;39744;53.314;5.710;2022-09-12T05:54:10;38.22;;;21.40;;
53843;SDS011;39744;53.314;5.710;2022-09-12T05:56:37;34.20;;;21.38;;
53843;SDS011;39744;53.314;5.710;2022-09-12T05:59:04;40.30;;;21.63;;
53843;SDS011;39744;53.314;5.710;2022-09-12T06:01:31;35.05;;;21.33;;
53843;SDS011;39744;53.314;5.710;2022-09-12T06:03:58;38.47;;;22.83;;
53843;SDS011;39744;53.314;5.710;2022-09-12T06:06:25;35.80;;;20.30;;
53843;SDS011;39744;53.314;5.710;2022-09-12T06:08:54;33.55;;;22.05;;
53843;SDS011;39744;53.314;5.710;2022-09-12T06:11:21;34.45;;;21.58;;
53843;SDS011;39744;53.314;5.710;2022-09-12T06:13:48;35.47;;;20.67;;
53843;SDS011;39744;53.314;5.710;2022-09-12T06:16:22;34.13;;;21.45;;
53843;SDS011;39744;53.314;5.710;2022-09-12T06:18:49;38.15;;;21.08;;
53843;SDS011;39744;53.314;5.710;2022-09-12T06:21:16;34.83;;;21.85;;
53843;SDS011;39744;53.314;5.710;2022-09-12T06:23:42;32.03;;;21.05;;
53843;SDS011;39744;53.314;5.710;2022-09-12T06:26:10;32.65;;;20.88;;
53843;SDS011;39744;53.314;5.710;2022-09-12T06:28:37;32.28;;;20.83;;
53843;SDS011;39744;53.314;5.710;2022-09-12T06:31:04;34.72;;;22.33;;
53843;SDS011;39744;53.314;5.710;2022-09-12T06:33:33;31.27;;;20.23;;
53843;SDS011;39744;53.314;5.710;2022-09-12T06:36:03;31.77;;;20.45;;
53843;SDS011;39744;53.314;5.710;2022-09-12T06:38:30;32.75;;;20.58;;
53843;SDS011;39744;53.314;5.710;2022-09-12T06:40:56;35.47;;;20.95;;
53843;SDS011;39744;53.314;5.710;2022-09-12T06:43:23;32.10;;;19.70;;
53843;SDS011;39744;53.314;5.710;2022-09-12T06:45:49;30.75;;;20.30;;
53843;SDS011;39744;53.314;5.710;2022-09-12T06:48:16;32.53;;;19.75;;
53843;SDS011;39744;53.314;5.710;2022-09-12T06:50:42;31.08;;;19.90;;
53843;SDS011;39744;53.314;5.710;2022-09-12T06:53:08;31.15;;;20.73;;
53843;SDS011;39744;53.314;5.710;2022-09-12T06:55:34;31.02;;;20.58;;
53843;SDS011;39744;53.314;5.710;2022-09-12T06:58:00;29.40;;;19.90;;
53843;SDS011;39744;53.314;5.710;2022-09-12T07:00:26;29.00;;;19.30;;
53843;SDS011;39744;53.314;5.710;2022-09-12T07:02:53;28.42;;;19.70;;
53843;SDS011;39744;53.314;5.710;2022-09-12T07:05:20;29.30;;;19.35;;
53843;SDS011;39744;53.314;5.710;2022-09-12T07:07:47;34.05;;;20.17;;
53843;SDS011;39744;53.314;5.710;2022-09-12T07:10:13;44.42;;;19.42;;
53843;SDS011;39744;53.314;5.710;2022-09-12T07:12:39;31.90;;;19.55;;
53843;SDS011;39744;53.314;5.710;2022-09-12T07:15:05;31.05;;;19.38;;
53843;SDS011;39744;53.314;5.710;2022-09-12T07:17:31;34.08;;;20.33;;
53843;SDS011;39744;53.314;5.710;2022-09-12T07:19:57;29.08;;;19.67;;
53843;SDS011;39744;53.314;5.710;2022-09-12T07:22:23;30.90;;;19.75;;
53843;SDS011;39744;53.314;5.710;2022-09-12T07:24:49;31.30;;;19.70;;
53843;SDS011;39744;53.314;5.710;2022-09-12T07:27:17;32.83;;;19.83;;
53843;SDS011;39744;53.314;5.710;2022-09-12T07:29:43;32.40;;;20.13;;
53843;SDS011;39744;53.314;5.710;2022-09-12T07:32:10;31.52;;;19.90;;
53843;SDS011;39744;53.314;5.710;2022-09-12T07:34:37;28.33;;;19.02;;
53843;SDS011;39744;53.314;5.710;2022-09-12T07:37:03;29.90;;;19.35;;
53843;SDS011;39744;53.314;5.710;2022-09-12T07:39:29;28.35;;;19.23;;
53843;SDS011;39744;53.314;5.710;2022-09-12T07:41:56;36.67;;;19.13;;
53843;SDS011;39744;53.314;5.710;2022-09-12T07:44:23;31.38;;;20.00;;
53843;SDS011;39744;53.314;5.710;2022-09-12T07:46:50;29.08;;;19.30;;
53843;SDS011;39744;53.314;5.710;2022-09-12T07:49:16;27.98;;;18.55;;
53843;SDS011;39744;53.314;5.710;2022-09-12T07:51:42;29.42;;;19.23;;
53843;SDS011;39744;53.314;5.710;2022-09-12T07:54:09;28.80;;;18.20;;
53843;SDS011;39744;53.314;5.710;2022-09-12T07:56:35;27.27;;;18.90;;
53843;SDS011;39744;53.314;5.710;2022-09-12T07:59:01;32.20;;;19.23;;
53843;SDS011;39744;53.314;5.710;2022-09-12T08:01:28;31.08;;;19.83;;
53843;SDS011;39744;53.314;5.710;2022-09-12T08:03:56;32.97;;;19.50;;
53843;SDS011;39744;53.314;5.710;2022-09-12T08:06:22;30.02;;;18.65;;
53843;SDS011;39744;53.314;5.710;2022-09-12T08:08:49;30.95;;;19.13;;
53843;SDS011;39744;53.314;5.710;2022-09-12T08:11:16;35.38;;;19.15;;
53843;SDS011;39744;53.314;5.710;2022-09-12T08:13:43;31.38;;;19.63;;
53843;SDS011;39744;53.314;5.710;2022-09-12T08:16:16;27.58;;;18.58;;
53843;SDS011;39744;53.314;5.710;2022-09-12T08:18:42;28.58;;;17.88;;
53843;SDS011;39744;53.314;5.710;2022-09-12T08:21:09;29.75;;;19.10;;
53843;SDS011;39744;53.314;5.710;2022-09-12T08:23:36;28.95;;;20.50;;
53843;SDS011;39744;53.314;5.710;2022-09-12T08:26:03;33.60;;;18.80;;
53843;SDS011;39744;53.314;5.710;2022-09-12T08:28:30;30.13;;;19.05;;
53843;SDS011;39744;53.314;5.710;2022-09-12T08:31:04;33.65;;;19.55;;
53843;SDS011;39744;53.314;5.710;2022-09-12T08:33:30;32.67;;;20.27;;
53843;SDS011;39744;53.314;5.710;2022-09-12T08:38:30;32.90;;;20.42;;
53843;SDS011;39744;53.314;5.710;2022-09-12T08:41:10;29.80;;;19.80;;
53843;SDS011;39744;53.314;5.710;2022-09-12T08:43:44;33.03;;;20.98;;
53843;SDS011;39744;53.314;5.710;2022-09-12T08:46:17;33.20;;;20.52;;
53843;SDS011;39744;53.314;5.710;2022-09-12T08:48:45;33.35;;;21.42;;
53843;SDS011;39744;53.314;5.710;2022-09-12T08:51:12;31.80;;;20.88;;
53843;SDS011;39744;53.314;5.710;2022-09-12T08:53:40;31.52;;;20.40;;
53843;SDS011;39744;53.314;5.710;2022-09-12T08:56:07;34.55;;;20.95;;
53843;SDS011;39744;53.314;5.710;2022-09-12T08:58:37;41.03;;;22.23;;
53843;SDS011;39744;53.314;5.710;2022-09-12T09:06:12;29.67;;;19.05;;
53843;SDS011;39744;53.314;5.710;2022-09-12T09:14:06;30.77;;;18.70;;
53843;SDS011;39744;53.314;5.710;2022-09-12T09:16:56;29.17;;;18.25;;
53843;SDS011;39744;53.314;5.710;2022-09-12T09:19:24;27.58;;;18.52;;
53843;SDS011;39744;53.314;5.710;2022-09-12T09:21:53;30.00;;;19.20;;
53843;SDS011;39744;53.314;5.710;2022-09-12T09:24:23;26.77;;;17.17;;
53843;SDS011;39744;53.314;5.710;2022-09-12T09:27:00;28.48;;;17.65;;
53843;SDS011;39744;53.314;5.710;2022-09-12T09:29:32;26.15;;;17.85;;
53843;SDS011;39744;53.314;5.710;2022-09-12T09:32:02;24.93;;;16.77;;
53843;SDS011;39744;53.314;5.710;2022-09-12T09:34:29;26.17;;;17.55;;
53843;SDS011;39744;53.314;5.710;2022-09-12T09:37:05;25.17;;;16.45;;
53843;SDS011;39744;53.314;5.710;2022-09-12T09:44:57;23.83;;;16.65;;
53843;SDS011;39744;53.314;5.710;2022-09-12T09:47:24;25.95;;;17.17;;
53843;SDS011;39744;53.314;5.710;2022-09-12T09:49:50;23.70;;;15.98;;
53843;SDS011;39744;53.314;5.710;2022-09-12T09:52:19;24.40;;;16.38;;
53843;SDS011;39744;53.314;5.710;2022-09-12T09:54:49;23.63;;;15.20;;
53843;SDS011;39744;53.314;5.710;2022-09-12T09:57:37;24.38;;;15.52;;
53843;SDS011;39744;53.314;5.710;2022-09-12T10:03:02;22.27;;;13.73;;
53843;SDS011;39744;53.314;5.710;2022-09-12T10:05:29;21.92;;;11.60;;
53843;SDS011;39744;53.314;5.710;2022-09-12T10:07:55;21.00;;;12.80;;
53843;SDS011;39744;53.314;5.710;2022-09-12T10:10:22;33.13;;;13.48;;
53843;SDS011;39744;53.314;5.710;2022-09-12T10:12:49;21.92;;;12.93;;
53843;SDS011;39744;53.314;5.710;2022-09-12T10:15:22;22.45;;;13.38;;
53843;SDS011;39744;53.314;5.710;2022-09-12T10:17:52;18.48;;;11.70;;
53843;SDS011;39744;53.314;5.710;2022-09-12T10:22:58;17.40;;;11.25;;
53843;SDS011;39744;53.314;5.710;2022-09-12T10:25:24;23.02;;;13.18;;
53843;SDS011;39744;53.314;5.710;2022-09-12T10:28:00;19.15;;;12.77;;
53843;SDS011;39744;53.314;5.710;2022-09-12T10:30:26;18.98;;;11.65;;
53843;SDS011;39744;53.314;5.710;2022-09-12T10:32:53;14.68;;;9.68;;
53843;SDS011;39744;53.314;5.710;2022-09-12T10:35:28;15.90;;;11.10;;
53843;SDS011;39744;53.314;5.710;2022-09-12T10:38:16;16.75;;;10.80;;
53843;SDS011;39744;53.314;5.710;2022-09-12T10:40:53;16.75;;;9.80;;
53843;SDS011;39744;53.314;5.710;2022-09-12T10:45:55;16.65;;;10.07;;
53843;SDS011;39744;53.314;5.710;2022-09-12T10:48:26;11.10;;;6.68;;
53843;SDS011;39744;53.314;5.710;2022-09-12T10:50:54;13.07;;;8.38;;
53843;SDS011;39744;53.314;5.710;2022-09-12T10:53:25;13.25;;;8.38;;
53843;SDS011;39744;53.314;5.710;2022-09-12T10:58:21;9.88;;;7.40;;
53843;SDS011;39744;53.314;5.710;2022-09-12T11:00:51;12.23;;;6.80;;
53843;SDS011;39744;53.314;5.710;2022-09-12T11:03:21;11.55;;;7.85;;
53843;SDS011;39744;53.314;5.710;2022-09-12T11:05:56;11.32;;;7.55;;
53843;SDS011;39744;53.314;5.710;2022-09-12T11:19:38;11.82;;;7.45;;
53843;SDS011;39744;53.314;5.710;2022-09-12T11:24:52;12.75;;;8.40;;
53843;SDS011;39744;53.314;5.710;2022-09-12T11:27:34;12.43;;;8.80;;
53843;SDS011;39744;53.314;5.710;2022-09-12T11:30:07;14.30;;;9.57;;
53843;SDS011;39744;53.314;5.710;2022-09-12T11:35:10;14.93;;;9.35;;
53843;SDS011;39744;53.314;5.710;2022-09-12T11:42:45;14.95;;;10.07;;
53843;SDS011;39744;53.314;5.710;2022-09-12T11:45:14;17.42;;;10.48;;
53843;SDS011;39744;53.314;5.710;2022-09-12T11:47:42;15.02;;;9.73;;
53843;SDS011;39744;53.314;5.710;2022-09-12T11:50:23;16.10;;;10.50;;
53843;SDS011;39744;53.314;5.710;2022-09-12T11:52:52;14.05;;;9.63;;
53843;SDS011;39744;53.314;5.710;2022-09-12T11:55:21;13.85;;;9.38;;
53843;SDS011;39744;53.314;5.710;2022-09-12T11:57:53;13.65;;;10.05;;
53843;SDS011;39744;53.314;5.710;2022-09-12T12:00:36;13.35;;;9.68;;
53843;SDS011;39744;53.314;5.710;2022-09-12T12:08:08;15.73;;;9.57;;
53843;SDS011;39744;53.314;5.710;2022-09-12T12:13:02;12.18;;;7.97;;
53843;SDS011;39744;53.314;5.710;2022-09-12T12:15:29;12.23;;;7.15;;
53843;SDS011;39744;53.314;5.710;2022-09-12T12:18:00;12.68;;;7.88;;
53843;SDS011;39744;53.314;5.710;2022-09-12T12:20:27;13.45;;;9.25;;
53843;SDS011;39744;53.314;5.710;2022-09-12T12:22:53;13.48;;;8.68;;
53843;SDS011;39744;53.314;5.710;2022-09-12T12:27:53;11.40;;;6.93;;
53843;SDS011;39744;53.314;5.710;2022-09-12T12:33:03;12.02;;;7.55;;
53843;SDS011;39744;53.314;5.710;2022-09-12T12:38:02;12.75;;;7.18;;
53843;SDS011;39744;53.314;5.710;2022-09-12T12:40:29;10.80;;;7.68;;
53843;SDS011;39744;53.314;5.710;2022-09-12T12:48:01;10.03;;;6.60;;
53843;SDS011;39744;53.314;5.710;2022-09-12T12:50:33;10.27;;;7.63;;
53843;SDS011;39744;53.314;5.710;2022-09-12T12:53:03;11.82;;;7.13;;
53843;SDS011;39744;53.314;5.710;2022-09-12T12:55:36;11.60;;;7.07;;
53843;SDS011;39744;53.314;5.710;2022-09-12T12:58:06;11.10;;;6.40;;
53843;SDS011;39744;53.314;5.710;2022-09-12T13:00:36;10.25;;;5.68;;
53843;SDS011;39744;53.314;5.710;2022-09-12T13:06:04;9.30;;;6.60;;
53843;SDS011;39744;53.314;5.710;2022-09-12T13:08:30;10.70;;;7.65;;
53843;SDS011;39744;53.314;5.710;2022-09-12T13:10:58;7.30;;;4.90;;
53843;SDS011;39744;53.314;5.710;2022-09-12T13:13:31;9.18;;;6.22;;
53843;SDS011;39744;53.314;5.710;2022-09-12T13:15:59;9.20;;;6.20;;
53843;SDS011;39744;53.314;5.710;2022-09-12T13:18:26;12.55;;;6.53;;
53843;SDS011;39744;53.314;5.710;2022-09-12T13:20:54;11.98;;;7.15;;
53843;SDS011;39744;53.314;5.710;2022-09-12T13:23:28;8.95;;;6.35;;
53843;SDS011;39744;53.314;5.710;2022-09-12T13:25:55;11.32;;;6.97;;
53843;SDS011;39744;53.314;5.710;2022-09-12T13:28:22;10.75;;;7.65;;
53843;SDS011;39744;53.314;5.710;2022-09-12T13:30:58;14.65;;;7.40;;
53843;SDS011;39744;53.314;5.710;2022-09-12T13:33:41;13.65;;;7.53;;
53843;SDS011;39744;53.314;5.710;2022-09-12T13:43:44;10.63;;;6.80;;
53843;SDS011;39744;53.314;5.710;2022-09-12T13:46:19;11.13;;;6.38;;
53843;SDS011;39744;53.314;5.710;2022-09-12T13:48:48;8.88;;;6.40;;
53843;SDS011;39744;53.314;5.710;2022-09-12T13:51:25;11.27;;;6.43;;
53843;SDS011;39744;53.314;5.710;2022-09-12T13:53:52;8.23;;;4.95;;
53843;SDS011;39744;53.314;5.710;2022-09-12T13:56:20;8.18;;;5.10;;
53843;SDS011;39744;53.314;5.710;2022-09-12T13:58:50;8.80;;;5.53;;
53843;SDS011;39744;53.314;5.710;2022-09-12T14:01:17;11.20;;;5.53;;
53843;SDS011;39744;53.314;5.710;2022-09-12T14:03:48;8.50;;;5.57;;
53843;SDS011;39744;53.314;5.710;2022-09-12T14:06:34;9.95;;;6.28;;
53843;SDS011;39744;53.314;5.710;2022-09-12T14:09:01;13.10;;;6.70;;
53843;SDS011;39744;53.314;5.710;2022-09-12T14:11:27;11.15;;;6.95;;
53843;SDS011;39744;53.314;5.710;2022-09-12T14:13:54;10.52;;;6.32;;
53843;SDS011;39744;53.314;5.710;2022-09-12T14:16:20;9.68;;;6.63;;
53843;SDS011;39744;53.314;5.710;2022-09-12T14:18:47;10.98;;;7.43;;
53843;SDS011;39744;53.314;5.710;2022-09-12T14:23:56;11.30;;;7.22;;
53843;SDS011;39744;53.314;5.710;2022-09-12T14:26:23;13.18;;;7.72;;
53843;SDS011;39744;53.314;5.710;2022-09-12T14:28:50;10.95;;;7.70;;
53843;SDS011;39744;53.314;5.710;2022-09-12T14:31:23;12.98;;;8.00;;
53843;SDS011;39744;53.314;5.710;2022-09-12T14:33:54;9.50;;;6.22;;
53843;SDS011;39744;53.314;5.710;2022-09-12T14:36:34;13.13;;;7.95;;
53843;SDS011;39744;53.314;5.710;2022-09-12T14:39:02;12.68;;;7.57;;
53843;SDS011;39744;53.314;5.710;2022-09-12T14:41:31;13.65;;;8.68;;
53843;SDS011;39744;53.314;5.710;2022-09-12T14:43:58;14.20;;;8.35;;
53843;SDS011;39744;53.314;5.710;2022-09-12T14:46:26;10.45;;;7.47;;
53843;SDS011;39744;53.314;5.710;2022-09-12T14:48:56;12.65;;;7.25;;
53843;SDS011;39744;53.314;5.710;2022-09-12T14:51:34;12.95;;;7.45;;
53843;SDS011;39744;53.314;5.710;2022-09-12T14:54:00;13.55;;;7.50;;
53843;SDS011;39744;53.314;5.710;2022-09-12T14:56:40;12.13;;;6.50;;
53843;SDS011;39744;53.314;5.710;2022-09-12T15:04:36;12.05;;;6.93;;
53843;SDS011;39744;53.314;5.710;2022-09-12T15:08:03;9.82;;;6.00;;
53843;SDS011;39744;53.314;5.710;2022-09-12T15:10:00;10.48;;;6.22;;
53843;SDS011;39744;53.314;5.710;2022-09-12T15:12:26;9.05;;;6.00;;
53843;SDS011;39744;53.314;5.710;2022-09-12T15:14:55;12.65;;;7.28;;
53843;SDS011;39744;53.314;5.710;2022-09-12T15:17:23;12.68;;;7.55;;
53843;SDS011;39744;53.314;5.710;2022-09-12T15:19:50;10.82;;;6.70;;
53843;SDS011;39744;53.314;5.710;2022-09-12T15:22:16;10.60;;;6.35;;
53843;SDS011;39744;53.314;5.710;2022-09-12T15:24:42;10.32;;;6.40;;
53843;SDS011;39744;53.314;5.710;2022-09-12T15:27:09;8.98;;;5.80;;
53843;SDS011;39744;53.314;5.710;2022-09-12T15:29:36;8.20;;;5.65;;
53843;SDS011;39744;53.314;5.710;2022-09-12T15:32:02;7.03;;;5.05;;
53843;SDS011;39744;53.314;5.710;2022-09-12T15:34:28;7.50;;;5.20;;
53843;SDS011;39744;53.314;5.710;2022-09-12T15:36:54;9.20;;;5.45;;
53843;SDS011;39744;53.314;5.710;2022-09-12T15:39:20;9.88;;;5.28;;
53843;SDS011;39744;53.314;5.710;2022-09-12T15:41:47;11.75;;;5.78;;
53843;SDS011;39744;53.314;5.710;2022-09-12T15:44:13;7.22;;;4.95;;
53843;SDS011;39744;53.314;5.710;2022-09-12T15:46:39;9.02;;;5.28;;
53843;SDS011;39744;53.314;5.710;2022-09-12T15:49:06;12.63;;;5.70;;
53843;SDS011;39744;53.314;5.710;2022-09-12T15:51:32;8.05;;;5.30;;
53843;SDS011;39744;53.314;5.710;2022-09-12T15:53:58;8.65;;;5.72;;
53843;SDS011;39744;53.314;5.710;2022-09-12T15:56:25;9.60;;;6.15;;
53843;SDS011;39744;53.314;5.710;2022-09-12T15:58:51;9.18;;;5.55;;
53843;SDS011;39744;53.314;5.710;2022-09-12T16:01:17;8.98;;;5.40;;
53843;SDS011;39744;53.314;5.710;2022-09-12T16:03:46;8.02;;;5.25;;
53843;SDS011;39744;53.314;5.710;2022-09-12T16:06:12;10.10;;;5.60;;
53843;SDS011;39744;53.314;5.710;2022-09-12T16:08:39;9.38;;;5.32;;
53843;SDS011;39744;53.314;5.710;2022-09-12T16:11:24;9.25;;;5.03;;
53843;SDS011;39744;53.314;5.710;2022-09-12T16:13:51;7.13;;;4.90;;
53843;SDS011;39744;53.314;5.710;2022-09-12T16:16:18;8.07;;;4.75;;
53843;SDS011;39744;53.314;5.710;2022-09-12T16:18:44;7.22;;;4.65;;
53843;SDS011;39744;53.314;5.710;2022-09-12T16:21:10;8.50;;;4.80;;
53843;SDS011;39744;53.314;5.710;2022-09-12T16:23:36;7.43;;;5.05;;
53843;SDS011;39744;53.314;5.710;2022-09-12T16:26:04;7.63;;;4.88;;
53843;SDS011;39744;53.314;5.710;2022-09-12T16:28:30;8.80;;;5.07;;
53843;SDS011;39744;53.314;5.710;2022-09-12T16:31:01;9.82;;;5.13;;
53843;SDS011;39744;53.314;5.710;2022-09-12T16:33:27;10.98;;;5.47;;
53843;SDS011;39744;53.314;5.710;2022-09-12T16:36:04;9.60;;;5.00;;
53843;SDS011;39744;53.314;5.710;2022-09-12T16:38:30;8.18;;;5.43;;
53843;SDS011;39744;53.314;5.710;2022-09-12T16:41:04;9.15;;;6.00;;
53843;SDS011;39744;53.314;5.710;2022-09-12T16:43:31;9.80;;;5.45;;